ENLA

Ula Platform Heliport

Norway
METAR ENLA 251850Z AUTO 22041G51KT 9999NDV -SHRA BKN032/// BKN099/// 12/08 Q1024 W///S5
Observed Flight Rules
Sep-25 @ 18:50 UTC (49 minutes ago)
Wind Clouds Conditions
220° at 41 knots
 Gusting to 51 knots
  • Broken at 3,200' AGL
  • Broken at 9,900' AGL
  • Light Rain
Temperatures Readings
Current 12°C / 54°F
Dewpoint 8°C / 46°F
Humidity 77%
Altimeter 30.24" Hg
Pressure 1024 hPa
Elevation 4
METAR ENLA 251850Z AUTO 22041G51KT 9999NDV -SHRA BKN032/// BKN099/// 12/08 Q1024 W///S5
Observed Flight Rules
Sep-25 @ 18:50 UTC
(49 minutes ago)
Wind
220° at 41 knots
 Gusting to 51 knots
Clouds
  • Broken at 3,200' AGL
  • Broken at 9,900' AGL
Conditions
  • Light Rain
Temperature Dewpoint
12°C / 54°F 8°C / 46°F
Humidity Altimeter Pressure
77% 30.24" Hg 1024 hPa